createdAt,value
2022-08-24T00:00:00.391Z,18.27
2022-08-24T00:02:26.942Z,18.28
2022-08-24T00:04:53.790Z,18.17
2022-08-24T00:07:27.422Z,18.21
2022-08-24T00:09:54.563Z,18.16
2022-08-24T00:12:21.083Z,18.18
2022-08-24T00:14:47.726Z,18.19
2022-08-24T00:17:17.093Z,18.28
2022-08-24T00:19:44.177Z,18.19
2022-08-24T00:22:10.687Z,18.18
2022-08-24T00:24:37.189Z,18.22
2022-08-24T00:27:04.443Z,18.30
2022-08-24T00:29:30.900Z,18.32
2022-08-24T00:31:57.370Z,18.25
2022-08-24T00:34:24.561Z,18.27
2022-08-24T00:36:51.266Z,18.32
2022-08-24T00:39:17.717Z,18.22
2022-08-24T00:41:48.320Z,18.17
2022-08-24T00:44:16.817Z,18.17
2022-08-24T00:46:59.788Z,18.13
2022-08-24T00:49:40.584Z,18.13
2022-08-24T00:52:24.708Z,18.10
2022-08-24T00:55:00.495Z,17.99
2022-08-24T00:57:31.685Z,17.98
2022-08-24T01:00:08.233Z,17.93
2022-08-24T01:02:41.997Z,17.91
2022-08-24T01:05:10.070Z,17.85
2022-08-24T01:07:38.123Z,17.82
2022-08-24T01:10:12.556Z,17.79
2022-08-24T01:12:48.105Z,17.74
2022-08-24T01:15:27.251Z,17.70
2022-08-24T01:18:12.366Z,17.73
2022-08-24T01:20:38.855Z,17.66
2022-08-24T01:23:13.467Z,17.66
2022-08-24T01:25:43.437Z,17.48
2022-08-24T01:28:21.777Z,17.55
2022-08-24T01:30:55.170Z,17.52
2022-08-24T01:33:25.547Z,17.57
2022-08-24T01:35:59.771Z,17.58
2022-08-24T01:38:26.668Z,17.53
2022-08-24T01:40:59.668Z,17.52
2022-08-24T01:43:26.996Z,17.49
2022-08-24T01:45:54.045Z,17.45
2022-08-24T01:48:23.019Z,17.45
2022-08-24T01:50:51.027Z,17.40
2022-08-24T01:53:17.606Z,17.37
2022-08-24T01:55:44.739Z,17.36
2022-08-24T01:58:11.719Z,17.36
2022-08-24T02:00:40.394Z,17.32
2022-08-24T02:03:07.665Z,17.30
2022-08-24T02:05:35.115Z,17.25
2022-08-24T02:08:01.810Z,17.24
2022-08-24T02:10:29.343Z,17.20
2022-08-24T02:12:58.326Z,17.18
2022-08-24T02:15:36.683Z,17.13
2022-08-24T02:18:03.472Z,17.13
2022-08-24T02:20:30.409Z,17.12
2022-08-24T02:22:57.703Z,17.07
2022-08-24T02:25:25.401Z,17.09
2022-08-24T02:27:52.088Z,17.01
2022-08-24T02:30:19.233Z,17.01
2022-08-24T02:32:45.829Z,16.97
2022-08-24T02:35:12.330Z,16.94
2022-08-24T02:37:43.364Z,16.92
2022-08-24T02:40:13.285Z,16.92
2022-08-24T02:42:41.048Z,16.93
2022-08-24T02:45:09.303Z,16.95
2022-08-24T02:47:39.189Z,16.96
2022-08-24T02:50:11.318Z,17.02
2022-08-24T02:52:39.464Z,17.05
2022-08-24T02:55:09.251Z,17.11
2022-08-24T02:57:36.231Z,17.11
2022-08-24T03:00:10.483Z,17.13
2022-08-24T03:02:39.543Z,17.17
2022-08-24T03:05:07.731Z,17.16
2022-08-24T03:07:35.306Z,17.24
2022-08-24T03:10:02.247Z,17.27
2022-08-24T03:12:29.186Z,17.29
2022-08-24T03:14:55.678Z,17.31
2022-08-24T03:17:23.929Z,17.36
2022-08-24T03:19:50.632Z,17.45
2022-08-24T03:22:17.366Z,17.51
2022-08-24T03:24:45.125Z,17.57
2022-08-24T03:27:14.059Z,17.59
2022-08-24T03:29:41.164Z,17.65
2022-08-24T03:32:08.154Z,17.68
2022-08-24T03:34:34.806Z,17.73
2022-08-24T03:37:01.231Z,17.75
2022-08-24T03:39:28.030Z,17.75
2022-08-24T03:41:55.824Z,17.81
2022-08-24T03:44:27.667Z,17.79
2022-08-24T03:46:55.252Z,17.82
2022-08-24T03:49:23.915Z,17.90
2022-08-24T03:51:50.650Z,17.94
2022-08-24T03:54:20.554Z,17.90
2022-08-24T03:56:47.170Z,17.87
2022-08-24T03:59:17.636Z,17.93
2022-08-24T04:01:47.714Z,17.92
2022-08-24T04:04:14.450Z,17.90
2022-08-24T04:06:44.323Z,17.82
2022-08-24T04:09:11.757Z,17.79
2022-08-24T04:11:41.515Z,17.82
2022-08-24T04:14:08.733Z,17.72
2022-08-24T04:16:57.912Z,17.85
2022-08-24T04:19:30.631Z,17.80
2022-08-24T04:21:58.994Z,17.72
2022-08-24T04:24:26.638Z,17.74
2022-08-24T04:26:53.242Z,17.78
2022-08-24T04:29:20.985Z,17.87
2022-08-24T04:31:51.642Z,17.91
2022-08-24T04:34:18.550Z,17.87
2022-08-24T04:36:45.702Z,17.90
2022-08-24T04:39:13.029Z,17.99
2022-08-24T04:41:59.940Z,17.98
2022-08-24T04:44:31.954Z,18.10
2022-08-24T04:46:59.893Z,18.07
2022-08-24T04:49:27.419Z,17.99
2022-08-24T04:51:55.974Z,17.99
2022-08-24T04:54:22.549Z,17.94
2022-08-24T04:57:01.293Z,17.98
2022-08-24T04:59:27.767Z,17.98
2022-08-24T05:01:54.574Z,18.01
2022-08-24T05:04:21.219Z,18.15
2022-08-24T05:06:47.775Z,18.22
2022-08-24T05:09:20.350Z,18.28
2022-08-24T05:11:49.807Z,18.25
2022-08-24T05:14:20.915Z,18.23
2022-08-24T05:16:52.643Z,18.20
2022-08-24T05:19:20.818Z,18.14
2022-08-24T05:21:47.743Z,18.19
2022-08-24T05:24:14.291Z,18.25
2022-08-24T05:26:40.801Z,18.32
2022-08-24T05:29:08.794Z,18.36
2022-08-24T05:31:45.532Z,18.20
2022-08-24T05:34:14.496Z,18.24
2022-08-24T05:36:42.576Z,18.24
2022-08-24T05:39:15.919Z,18.24
2022-08-24T05:41:47.787Z,18.31
2022-08-24T05:44:25.944Z,18.28
2022-08-24T05:46:55.777Z,18.28
2022-08-24T05:49:22.271Z,18.33
2022-08-24T05:51:48.690Z,18.34
2022-08-24T05:54:16.195Z,18.43
2022-08-24T05:56:51.918Z,18.29
2022-08-24T05:59:19.690Z,18.19
2022-08-24T06:01:47.326Z,18.20
2022-08-24T06:04:14.299Z,18.30
2022-08-24T06:06:42.098Z,18.19
2022-08-24T06:09:11.621Z,18.25
2022-08-24T06:11:40.362Z,18.31
2022-08-24T06:14:12.050Z,18.28
2022-08-24T06:16:48.888Z,18.44
2022-08-24T06:19:17.940Z,18.51
2022-08-24T06:21:46.907Z,18.56
2022-08-24T06:24:15.734Z,18.71
2022-08-24T06:27:03.845Z,18.79
2022-08-24T06:29:33.940Z,18.81
2022-08-24T06:32:16.106Z,18.85
2022-08-24T06:34:42.751Z,18.85
2022-08-24T06:37:09.399Z,18.80
2022-08-24T06:39:36.856Z,18.84
2022-08-24T06:42:05.151Z,18.89
2022-08-24T06:44:33.092Z,18.98
2022-08-24T06:47:07.913Z,19.04
2022-08-24T06:49:37.952Z,19.09
2022-08-24T06:52:05.659Z,19.10
2022-08-24T06:54:33.351Z,19.12
2022-08-24T06:57:01.489Z,19.16
2022-08-24T06:59:29.057Z,19.19
2022-08-24T07:01:57.856Z,19.22
2022-08-24T07:04:28.366Z,19.20
2022-08-24T07:07:20.838Z,19.21
2022-08-24T07:09:47.576Z,19.26
2022-08-24T07:12:14.649Z,19.29
2022-08-24T07:14:41.144Z,19.44
2022-08-24T07:17:07.739Z,19.41
2022-08-24T07:19:34.229Z,19.44
2022-08-24T07:22:01.238Z,19.61
2022-08-24T07:24:27.760Z,19.56
2022-08-24T07:26:55.091Z,19.68
2022-08-24T07:29:46.347Z,19.80
2022-08-24T07:32:10.171Z,19.87
2022-08-24T07:34:39.567Z,19.84
2022-08-24T07:37:07.817Z,19.85
2022-08-24T07:39:36.505Z,19.80
2022-08-24T07:42:12.667Z,19.84
2022-08-24T07:44:41.924Z,19.86
2022-08-24T07:47:34.266Z,19.95
2022-08-24T07:49:55.503Z,20.08
2022-08-24T07:52:21.955Z,20.02
2022-08-24T07:54:49.495Z,20.03
2022-08-24T07:57:15.953Z,20.21
2022-08-24T07:59:42.410Z,20.17
2022-08-24T08:02:10.638Z,20.17
2022-08-24T08:04:37.558Z,20.33
2022-08-24T08:07:06.168Z,20.30
2022-08-24T08:09:34.143Z,20.26
2022-08-24T08:12:00.659Z,20.40
2022-08-24T08:14:27.112Z,20.50
2022-08-24T08:16:53.738Z,20.52
2022-08-24T08:19:20.192Z,20.55
2022-08-24T08:22:07.758Z,20.71
2022-08-24T08:24:43.908Z,20.72
2022-08-24T08:27:12.741Z,20.84
2022-08-24T08:29:40.804Z,20.79
2022-08-24T08:32:09.411Z,21.03
2022-08-24T08:34:36.578Z,21.12
2022-08-24T08:37:03.883Z,21.29
2022-08-24T08:39:31.125Z,21.45
2022-08-24T08:42:13.195Z,21.52
2022-08-24T08:44:52.357Z,21.45
2022-08-24T08:47:56.379Z,21.77
2022-08-24T08:51:11.810Z,21.98
2022-08-24T08:54:18.232Z,22.31
2022-08-24T08:57:12.009Z,22.45
2022-08-24T08:59:45.477Z,22.69
2022-08-24T09:02:32.154Z,22.83
2022-08-24T09:05:35.256Z,22.78
2022-08-24T09:08:26.428Z,22.90
2022-08-24T09:10:59.700Z,22.84
2022-08-24T09:13:48.242Z,22.98
2022-08-24T09:16:59.323Z,23.11
2022-08-24T09:19:42.647Z,23.23
2022-08-24T09:22:20.518Z,23.43
2022-08-24T09:24:52.669Z,23.45
2022-08-24T09:27:39.882Z,23.66
2022-08-24T09:30:26.912Z,23.78
2022-08-24T09:33:12.143Z,23.88
2022-08-24T09:36:06.926Z,23.85
2022-08-24T09:39:01.147Z,23.82
2022-08-24T09:42:03.903Z,23.84
2022-08-24T09:45:07.736Z,23.82
2022-08-24T09:48:15.802Z,23.89
2022-08-24T09:51:01.624Z,23.87
2022-08-24T09:53:47.390Z,24.06
2022-08-24T09:56:45.326Z,24.11
2022-08-24T09:59:28.334Z,24.17
2022-08-24T10:02:40.207Z,24.16
2022-08-24T10:05:27.371Z,24.09
2022-08-24T10:07:54.734Z,24.34
2022-08-24T10:10:32.142Z,24.43
2022-08-24T10:13:14.370Z,24.36
2022-08-24T10:16:20.300Z,24.56
2022-08-24T10:19:11.607Z,24.40
2022-08-24T10:22:08.260Z,24.36
2022-08-24T10:25:06.069Z,24.14
2022-08-24T10:27:59.742Z,24.45
2022-08-24T10:30:51.686Z,24.58
2022-08-24T10:33:21.217Z,24.58
2022-08-24T10:36:08.891Z,24.73
2022-08-24T10:39:03.384Z,24.77
2022-08-24T10:41:48.555Z,24.75
2022-08-24T10:44:43.190Z,24.82
2022-08-24T10:47:22.551Z,25.00
2022-08-24T10:50:18.230Z,25.05
2022-08-24T10:53:13.923Z,25.16
2022-08-24T10:55:40.799Z,25.12
2022-08-24T10:58:31.583Z,25.19
2022-08-24T11:01:12.641Z,25.00
2022-08-24T11:03:48.323Z,24.85
2022-08-24T11:06:17.627Z,24.98
2022-08-24T11:09:06.082Z,25.06
2022-08-24T11:11:44.594Z,25.28
2022-08-24T11:14:24.956Z,25.66
2022-08-24T11:16:57.061Z,25.76
2022-08-24T11:19:26.826Z,25.90
2022-08-24T11:21:55.938Z,25.95
2022-08-24T11:24:30.250Z,26.02
2022-08-24T11:27:01.525Z,26.29
2022-08-24T11:29:49.599Z,26.33
2022-08-24T11:32:26.378Z,26.38
2022-08-24T11:34:53.399Z,26.28
2022-08-24T11:37:30.983Z,26.23
2022-08-24T11:39:57.471Z,26.08
2022-08-24T11:43:05.745Z,26.33
2022-08-24T11:45:43.091Z,26.47
2022-08-24T11:48:36.152Z,26.44
2022-08-24T11:51:16.186Z,26.34
2022-08-24T11:53:59.778Z,26.39
2022-08-24T11:56:36.160Z,26.51
2022-08-24T11:59:29.779Z,26.60
2022-08-24T12:02:04.155Z,26.83
2022-08-24T12:04:55.070Z,27.28
2022-08-24T12:07:51.017Z,27.10
2022-08-24T12:10:26.131Z,26.68
2022-08-24T12:13:09.169Z,26.98
2022-08-24T12:15:39.316Z,27.12
2022-08-24T12:18:23.996Z,27.02
2022-08-24T12:20:53.451Z,27.55
2022-08-24T12:23:47.339Z,27.41
2022-08-24T12:26:22.458Z,27.75
2022-08-24T12:28:55.710Z,27.59
2022-08-24T12:31:34.606Z,27.84
2022-08-24T12:34:09.740Z,27.67
2022-08-24T12:36:53.932Z,27.68
2022-08-24T12:39:26.736Z,27.50
2022-08-24T12:42:00.207Z,27.49
2022-08-24T12:44:35.235Z,27.43
2022-08-24T12:47:02.914Z,27.50
2022-08-24T12:49:37.172Z,27.41
2022-08-24T12:52:32.799Z,27.75
2022-08-24T12:55:14.778Z,28.37
2022-08-24T12:58:30.339Z,28.60
2022-08-24T13:00:51.075Z,28.45
2022-08-24T13:03:30.844Z,28.10
2022-08-24T13:06:00.458Z,28.30
2022-08-24T13:08:40.491Z,28.78
2022-08-24T13:11:12.516Z,29.14
2022-08-24T13:14:04.285Z,29.18
2022-08-24T13:16:52.147Z,29.29
2022-08-24T13:19:28.364Z,29.50
2022-08-24T13:22:18.212Z,29.61
2022-08-24T13:24:46.945Z,29.61
2022-08-24T13:27:13.415Z,29.78
2022-08-24T13:29:43.599Z,29.51
2022-08-24T13:32:21.134Z,28.95
2022-08-24T13:34:48.785Z,29.08
2022-08-24T13:37:20.206Z,29.02
2022-08-24T13:40:02.303Z,29.21
2022-08-24T13:43:03.442Z,28.56
2022-08-24T13:45:38.720Z,28.71
2022-08-24T13:48:08.071Z,28.94
2022-08-24T13:50:56.598Z,29.12
2022-08-24T13:53:50.838Z,29.09
2022-08-24T13:56:47.604Z,29.15
2022-08-24T13:59:39.691Z,29.61
2022-08-24T14:02:27.637Z,29.62
2022-08-24T14:05:24.839Z,29.90
2022-08-24T14:08:04.758Z,29.99
2022-08-24T14:10:44.016Z,30.28
2022-08-24T14:13:28.672Z,30.30
2022-08-24T14:16:21.084Z,30.33
2022-08-24T14:19:15.068Z,30.63
2022-08-24T14:21:53.454Z,29.89
2022-08-24T14:24:32.376Z,30.09
2022-08-24T14:27:28.848Z,30.39
2022-08-24T14:30:17.965Z,30.33
2022-08-24T14:32:59.312Z,30.10
2022-08-24T14:35:58.917Z,29.94
2022-08-24T14:38:37.916Z,30.34
2022-08-24T14:41:41.982Z,30.62
2022-08-24T14:44:40.366Z,30.50
2022-08-24T14:47:20.706Z,30.49
2022-08-24T14:50:20.162Z,30.64
2022-08-24T14:53:14.566Z,29.91
2022-08-24T14:55:47.881Z,30.24
2022-08-24T14:58:36.461Z,30.79
2022-08-24T15:01:24.404Z,30.61
2022-08-24T15:04:11.064Z,30.81
2022-08-24T15:06:45.839Z,30.95
2022-08-24T15:09:23.578Z,30.12
2022-08-24T15:11:52.993Z,30.23
2022-08-24T15:14:40.180Z,30.06
2022-08-24T15:17:15.413Z,30.69
2022-08-24T15:20:01.926Z,29.95
2022-08-24T15:22:47.214Z,29.74
2022-08-24T15:25:19.177Z,29.46
2022-08-24T15:27:53.529Z,29.65
2022-08-24T15:30:32.752Z,29.64
2022-08-24T15:33:19.081Z,29.40
2022-08-24T15:36:03.258Z,29.35
2022-08-24T15:38:29.607Z,29.43
2022-08-24T15:41:06.667Z,29.48
2022-08-24T15:43:38.490Z,29.30
2022-08-24T15:46:05.497Z,29.34
2022-08-24T15:48:32.079Z,29.49
2022-08-24T15:51:00.979Z,29.21
2022-08-24T15:53:41.491Z,29.06
2022-08-24T15:56:20.020Z,28.64
2022-08-24T15:58:47.619Z,28.49
2022-08-24T16:01:32.823Z,28.70
2022-08-24T16:04:06.968Z,28.63
2022-08-24T16:06:33.325Z,28.64
2022-08-24T16:09:05.906Z,28.53
2022-08-24T16:11:39.875Z,28.51
2022-08-24T16:14:26.531Z,28.41
2022-08-24T16:16:54.428Z,28.29
2022-08-24T16:19:33.041Z,28.25
2022-08-24T16:22:10.567Z,28.31
2022-08-24T16:24:40.268Z,28.38
2022-08-24T16:27:11.904Z,28.38
2022-08-24T16:29:38.248Z,28.41
2022-08-24T16:32:32.733Z,28.41
2022-08-24T16:35:20.598Z,28.37
2022-08-24T16:37:47.153Z,28.44
2022-08-24T16:40:14.107Z,28.35
2022-08-24T16:42:41.066Z,28.10
2022-08-24T16:45:10.712Z,27.85
2022-08-24T16:47:37.356Z,27.90
2022-08-24T16:50:05.945Z,27.87
2022-08-24T16:52:32.495Z,28.00
2022-08-24T16:55:00.651Z,28.00
2022-08-24T16:57:30.066Z,27.96
2022-08-24T16:59:57.071Z,27.88
2022-08-24T17:02:25.791Z,27.86
2022-08-24T17:04:54.437Z,27.79
2022-08-24T17:07:26.537Z,27.53
2022-08-24T17:09:54.325Z,27.35
2022-08-24T17:12:21.012Z,27.23
2022-08-24T17:14:47.798Z,27.41
2022-08-24T17:17:17.710Z,27.35
2022-08-24T17:19:49.948Z,27.29
2022-08-24T17:22:17.173Z,27.33
2022-08-24T17:24:44.459Z,27.18
2022-08-24T17:27:36.629Z,27.07
2022-08-24T17:30:05.158Z,26.97
2022-08-24T17:32:32.384Z,27.02
2022-08-24T17:34:58.863Z,26.86
2022-08-24T17:37:25.342Z,26.83
2022-08-24T17:39:55.642Z,26.67
2022-08-24T17:42:49.037Z,26.70
2022-08-24T17:45:10.428Z,26.67
2022-08-24T17:47:36.863Z,26.57
2022-08-24T17:50:06.295Z,26.61
2022-08-24T17:52:32.982Z,26.54
2022-08-24T17:54:59.403Z,26.46
2022-08-24T17:57:27.283Z,26.40
2022-08-24T17:59:54.138Z,26.38
2022-08-24T18:02:20.570Z,26.29
2022-08-24T18:04:47.148Z,26.23
2022-08-24T18:07:35.870Z,26.23
2022-08-24T18:10:09.716Z,25.99
2022-08-24T18:12:36.163Z,26.02
2022-08-24T18:15:02.937Z,25.92
2022-08-24T18:17:35.803Z,26.04
2022-08-24T18:20:03.003Z,25.92
2022-08-24T18:22:29.463Z,25.77
2022-08-24T18:24:55.913Z,25.69
2022-08-24T18:27:28.382Z,25.70
2022-08-24T18:30:01.337Z,25.60
2022-08-24T18:32:31.111Z,25.57
2022-08-24T18:34:58.908Z,25.46
2022-08-24T18:37:25.352Z,25.33
2022-08-24T18:39:51.800Z,25.29
2022-08-24T18:42:18.300Z,25.32
2022-08-24T18:44:44.723Z,25.27
2022-08-24T18:47:11.302Z,25.22
2022-08-24T18:49:37.748Z,25.14
2022-08-24T18:52:09.272Z,25.11
2022-08-24T18:54:39.579Z,24.89
2022-08-24T18:57:07.069Z,24.85
2022-08-24T18:59:35.372Z,24.92
2022-08-24T19:02:33.141Z,24.71
2022-08-24T19:05:04.077Z,24.73
2022-08-24T19:07:32.095Z,24.61
2022-08-24T19:09:59.778Z,24.64
2022-08-24T19:12:28.331Z,24.59
2022-08-24T19:14:57.836Z,24.46
2022-08-24T19:17:24.979Z,24.39
2022-08-24T19:19:51.615Z,24.53
2022-08-24T19:22:18.056Z,24.44
2022-08-24T19:24:44.727Z,24.46
2022-08-24T19:27:11.547Z,24.37
2022-08-24T19:32:27.861Z,24.34
2022-08-24T19:34:56.653Z,24.32
2022-08-24T19:37:23.351Z,24.29
2022-08-24T19:39:50.972Z,24.26
2022-08-24T19:42:21.878Z,24.35
2022-08-24T19:45:06.800Z,24.31
2022-08-24T19:47:34.299Z,24.20
2022-08-24T19:50:02.106Z,24.10
2022-08-24T19:52:32.437Z,24.02
2022-08-24T19:54:59.069Z,23.90
2022-08-24T19:57:47.390Z,23.81
2022-08-24T20:00:48.288Z,23.83
2022-08-24T20:03:18.337Z,23.74
2022-08-24T20:05:44.760Z,23.69
2022-08-24T20:08:11.228Z,23.69
2022-08-24T20:10:38.098Z,23.63
2022-08-24T20:13:05.258Z,23.51
2022-08-24T20:15:33.214Z,23.44
2022-08-24T20:18:00.171Z,23.50
2022-08-24T20:20:27.923Z,23.41
2022-08-24T20:22:54.506Z,23.38
2022-08-24T20:25:21.003Z,23.23
2022-08-24T20:27:50.666Z,23.35
2022-08-24T20:30:46.203Z,23.21
2022-08-24T20:33:17.814Z,23.25
2022-08-24T20:35:45.485Z,23.26
2022-08-24T20:38:18.184Z,23.08
2022-08-24T20:40:45.610Z,23.09
2022-08-24T20:43:12.687Z,23.07
2022-08-24T20:45:40.950Z,23.11
2022-08-24T20:48:11.808Z,23.09
2022-08-24T20:50:38.818Z,23.10
2022-08-24T20:53:06.168Z,23.07
2022-08-24T20:55:32.798Z,23.01
2022-08-24T20:58:02.533Z,23.00
2022-08-24T21:00:29.427Z,22.92
2022-08-24T21:02:56.066Z,22.85
2022-08-24T21:05:22.674Z,22.86
2022-08-24T21:07:52.019Z,22.89
2022-08-24T21:10:21.397Z,22.87
2022-08-24T21:12:51.952Z,22.87
2022-08-24T21:15:18.605Z,22.85
2022-08-24T21:17:45.345Z,22.79
2022-08-24T21:20:13.906Z,22.69
2022-08-24T21:22:40.862Z,22.74
2022-08-24T21:25:09.793Z,22.76
2022-08-24T21:27:39.591Z,22.67
2022-08-24T21:30:08.757Z,22.70
2022-08-24T21:32:53.672Z,22.63
2022-08-24T21:35:20.241Z,22.72
2022-08-24T21:37:47.854Z,22.74
2022-08-24T21:40:16.254Z,22.72
2022-08-24T21:42:42.766Z,22.76
2022-08-24T21:45:09.629Z,22.68
2022-08-24T21:47:36.046Z,22.67
2022-08-24T21:50:02.893Z,22.72
2022-08-24T21:52:29.343Z,22.63
2022-08-24T21:54:56.349Z,22.61
2022-08-24T21:57:23.233Z,22.60
2022-08-24T21:59:49.933Z,22.64
2022-08-24T22:02:16.971Z,22.61
2022-08-24T22:04:47.340Z,22.49
2022-08-24T22:07:24.394Z,22.49
2022-08-24T22:09:50.905Z,22.51
2022-08-24T22:12:18.308Z,22.54
2022-08-24T22:14:44.718Z,22.50
2022-08-24T22:17:11.254Z,22.49
2022-08-24T22:19:38.041Z,22.41
2022-08-24T22:22:04.822Z,22.49
2022-08-24T22:24:31.439Z,22.45
2022-08-24T22:26:57.866Z,22.38
2022-08-24T22:29:24.271Z,22.34
2022-08-24T22:31:50.702Z,22.37
2022-08-24T22:34:20.910Z,22.27
2022-08-24T22:36:51.307Z,22.24
2022-08-24T22:39:17.762Z,22.25
2022-08-24T22:41:44.308Z,22.18
2022-08-24T22:44:19.626Z,22.18
2022-08-24T22:46:57.409Z,22.13
2022-08-24T22:49:28.538Z,22.16
2022-08-24T22:51:55.310Z,22.15
2022-08-24T22:54:23.065Z,22.17
2022-08-24T22:56:51.869Z,22.13
2022-08-24T22:59:24.219Z,22.13
2022-08-24T23:01:52.628Z,22.12
2022-08-24T23:04:23.576Z,22.01
2022-08-24T23:06:51.397Z,21.95
2022-08-24T23:09:18.505Z,21.91
2022-08-24T23:11:46.319Z,21.93
2022-08-24T23:14:14.307Z,22.01
2022-08-24T23:16:44.856Z,22.01
2022-08-24T23:19:29.963Z,21.89
2022-08-24T23:21:56.432Z,21.92
2022-08-24T23:24:22.868Z,21.90
2022-08-24T23:26:49.399Z,21.77
2022-08-24T23:29:16.951Z,21.74
2022-08-24T23:31:46.064Z,21.74
2022-08-24T23:34:13.024Z,21.79
2022-08-24T23:36:40.142Z,21.79
2022-08-24T23:39:08.687Z,21.70
2022-08-24T23:41:38.174Z,21.65
2022-08-24T23:44:10.500Z,21.70
2022-08-24T23:46:37.985Z,21.63
2022-08-24T23:49:05.271Z,21.65
2022-08-24T23:51:31.924Z,21.71
2022-08-24T23:53:59.006Z,21.67
2022-08-24T23:56:31.498Z,21.68
2022-08-24T23:59:01.684Z,21.66
